sensor_id;sensor_type;location;lat;lon;timestamp;pressure;altitude;pressure_sealevel;temperature;humidity
75617;BME280;64200;55.426;37.758;2024-02-14T00:02:24;100158.50;;;-8.78;61.85
75617;BME280;64200;55.426;37.758;2024-02-14T00:07:27;100156.88;;;-8.71;62.02
75617;BME280;64200;55.426;37.758;2024-02-14T00:12:28;100147.81;;;-8.36;61.06
75617;BME280;64200;55.426;37.758;2024-02-14T00:17:29;100145.44;;;-8.76;61.79
75617;BME280;64200;55.426;37.758;2024-02-14T00:22:31;100143.72;;;-8.90;62.67
75617;BME280;64200;55.426;37.758;2024-02-14T00:27:31;100140.63;;;-8.62;61.00
75617;BME280;64200;55.426;37.758;2024-02-14T00:32:32;100143.75;;;-8.98;62.57
75617;BME280;64200;55.426;37.758;2024-02-14T00:37:33;100161.41;;;-9.01;61.93
75617;BME280;64200;55.426;37.758;2024-02-14T00:42:34;100150.84;;;-8.76;61.34
75617;BME280;64200;55.426;37.758;2024-02-14T00:47:35;100169.19;;;-8.82;62.10
75617;BME280;64200;55.426;37.758;2024-02-14T00:52:36;100168.91;;;-9.07;62.14
75617;BME280;64200;55.426;37.758;2024-02-14T00:57:36;100157.47;;;-8.56;61.75
75617;BME280;64200;55.426;37.758;2024-02-14T01:02:37;100158.94;;;-8.68;61.29
75617;BME280;64200;55.426;37.758;2024-02-14T01:07:37;100163.50;;;-8.51;61.51
75617;BME280;64200;55.426;37.758;2024-02-14T01:12:38;100158.97;;;-8.38;59.90
75617;BME280;64200;55.426;37.758;2024-02-14T01:17:40;100170.31;;;-8.44;59.88
75617;BME280;64200;55.426;37.758;2024-02-14T01:22:40;100166.94;;;-8.80;60.52
75617;BME280;64200;55.426;37.758;2024-02-14T01:27:41;100168.56;;;-8.49;60.31
75617;BME280;64200;55.426;37.758;2024-02-14T01:32:43;100176.47;;;-8.83;60.12
75617;BME280;64200;55.426;37.758;2024-02-14T01:37:43;100173.28;;;-8.76;59.59
75617;BME280;64200;55.426;37.758;2024-02-14T01:42:45;100183.00;;;-8.84;59.77
75617;BME280;64200;55.426;37.758;2024-02-14T01:47:46;100191.28;;;-8.89;59.50
75617;BME280;64200;55.426;37.758;2024-02-14T01:52:46;100202.22;;;-8.76;60.00
75617;BME280;64200;55.426;37.758;2024-02-14T01:57:47;100196.75;;;-8.50;59.76
75617;BME280;64200;55.426;37.758;2024-02-14T02:02:48;100198.59;;;-8.80;59.71
75617;BME280;64200;55.426;37.758;2024-02-14T02:07:49;100195.28;;;-9.12;59.88
75617;BME280;64200;55.426;37.758;2024-02-14T02:12:50;100201.00;;;-9.14;59.70
75617;BME280;64200;55.426;37.758;2024-02-14T02:17:51;100208.16;;;-9.71;61.03
75617;BME280;64200;55.426;37.758;2024-02-14T02:22:53;100214.00;;;-8.90;59.72
75617;BME280;64200;55.426;37.758;2024-02-14T02:27:54;100212.00;;;-9.19;59.19
75617;BME280;64200;55.426;37.758;2024-02-14T02:32:56;100223.13;;;-9.29;60.40
75617;BME280;64200;55.426;37.758;2024-02-14T02:37:59;100226.94;;;-9.04;59.75
75617;BME280;64200;55.426;37.758;2024-02-14T02:42:59;100235.03;;;-9.22;59.64
75617;BME280;64200;55.426;37.758;2024-02-14T02:48:00;100227.56;;;-9.33;59.69
75617;BME280;64200;55.426;37.758;2024-02-14T02:53:02;100225.81;;;-9.47;59.57
75617;BME280;64200;55.426;37.758;2024-02-14T02:58:03;100229.56;;;-9.74;60.91
75617;BME280;64200;55.426;37.758;2024-02-14T03:03:07;100228.97;;;-10.20;61.44
75617;BME280;64200;55.426;37.758;2024-02-14T03:08:08;100228.28;;;-9.94;61.70
75617;BME280;64200;55.426;37.758;2024-02-14T03:13:15;100245.84;;;-10.06;61.76
75617;BME280;64200;55.426;37.758;2024-02-14T03:18:17;100248.47;;;-9.74;61.54
75617;BME280;64200;55.426;37.758;2024-02-14T03:23:18;100245.38;;;-10.08;61.98
75617;BME280;64200;55.426;37.758;2024-02-14T03:28:18;100244.56;;;-10.08;60.87
75617;BME280;64200;55.426;37.758;2024-02-14T03:33:19;100245.25;;;-9.94;61.31
75617;BME280;64200;55.426;37.758;2024-02-14T03:38:28;100254.94;;;-10.42;61.56
75617;BME280;64200;55.426;37.758;2024-02-14T03:43:29;100254.75;;;-9.96;61.63
75617;BME280;64200;55.426;37.758;2024-02-14T03:48:30;100262.97;;;-10.10;61.21
75617;BME280;64200;55.426;37.758;2024-02-14T03:53:31;100270.50;;;-9.90;60.55
75617;BME280;64200;55.426;37.758;2024-02-14T03:58:33;100286.19;;;-10.00;61.33
75617;BME280;64200;55.426;37.758;2024-02-14T04:03:37;100281.13;;;-10.02;61.64
75617;BME280;64200;55.426;37.758;2024-02-14T04:08:38;100280.72;;;-10.18;61.01
75617;BME280;64200;55.426;37.758;2024-02-14T04:13:38;100276.16;;;-10.09;60.85
75617;BME280;64200;55.426;37.758;2024-02-14T04:18:39;100275.63;;;-9.79;60.28
75617;BME280;64200;55.426;37.758;2024-02-14T04:23:39;100296.44;;;-10.51;61.76
75617;BME280;64200;55.426;37.758;2024-02-14T04:28:40;100298.59;;;-10.31;60.81
75617;BME280;64200;55.426;37.758;2024-02-14T04:33:41;100303.00;;;-9.63;60.27
75617;BME280;64200;55.426;37.758;2024-02-14T04:38:43;100304.94;;;-9.95;60.38
75617;BME280;64200;55.426;37.758;2024-02-14T04:43:44;100309.16;;;-10.12;60.02
75617;BME280;64200;55.426;37.758;2024-02-14T04:48:44;100318.28;;;-9.99;58.98
75617;BME280;64200;55.426;37.758;2024-02-14T04:53:45;100309.94;;;-10.11;58.87
75617;BME280;64200;55.426;37.758;2024-02-14T04:58:45;100331.31;;;-10.24;59.98
75617;BME280;64200;55.426;37.758;2024-02-14T05:03:46;100327.72;;;-10.10;59.18
75617;BME280;64200;55.426;37.758;2024-02-14T05:08:47;100329.53;;;-10.28;59.94
75617;BME280;64200;55.426;37.758;2024-02-14T05:13:47;100334.22;;;-10.11;58.85
75617;BME280;64200;55.426;37.758;2024-02-14T05:18:49;100343.81;;;-10.05;59.53
75617;BME280;64200;55.426;37.758;2024-02-14T05:23:49;100335.47;;;-10.17;59.52
75617;BME280;64200;55.426;37.758;2024-02-14T05:28:50;100346.78;;;-10.38;59.49
75617;BME280;64200;55.426;37.758;2024-02-14T05:33:51;100347.75;;;-10.02;58.55
75617;BME280;64200;55.426;37.758;2024-02-14T05:38:51;100346.13;;;-9.81;58.72
75617;BME280;64200;55.426;37.758;2024-02-14T05:43:52;100347.84;;;-9.85;58.37
75617;BME280;64200;55.426;37.758;2024-02-14T05:48:54;100353.78;;;-10.06;59.33
75617;BME280;64200;55.426;37.758;2024-02-14T05:53:55;100362.09;;;-9.62;58.49
75617;BME280;64200;55.426;37.758;2024-02-14T05:58:56;100357.41;;;-9.79;58.40
75617;BME280;64200;55.426;37.758;2024-02-14T06:03:56;100377.28;;;-9.75;58.50
75617;BME280;64200;55.426;37.758;2024-02-14T06:08:57;100386.25;;;-9.48;57.63
75617;BME280;64200;55.426;37.758;2024-02-14T06:13:58;100384.03;;;-9.55;57.30
75617;BME280;64200;55.426;37.758;2024-02-14T06:18:58;100387.53;;;-9.85;57.90
75617;BME280;64200;55.426;37.758;2024-02-14T06:24:00;100392.84;;;-9.72;58.01
75617;BME280;64200;55.426;37.758;2024-02-14T06:29:01;100393.31;;;-9.78;57.24
75617;BME280;64200;55.426;37.758;2024-02-14T06:34:02;100396.06;;;-9.61;57.41
75617;BME280;64200;55.426;37.758;2024-02-14T06:39:04;100400.94;;;-9.31;57.08
75617;BME280;64200;55.426;37.758;2024-02-14T06:44:04;100393.94;;;-9.81;57.13
75617;BME280;64200;55.426;37.758;2024-02-14T06:49:05;100388.47;;;-9.59;56.98
75617;BME280;64200;55.426;37.758;2024-02-14T06:54:05;100404.63;;;-9.19;57.21
75617;BME280;64200;55.426;37.758;2024-02-14T06:59:06;100404.25;;;-9.34;56.43
75617;BME280;64200;55.426;37.758;2024-02-14T07:04:06;100407.50;;;-9.06;55.67
75617;BME280;64200;55.426;37.758;2024-02-14T07:09:07;100411.94;;;-8.05;56.11
75617;BME280;64200;55.426;37.758;2024-02-14T07:14:08;100404.06;;;-7.72;53.07
75617;BME280;64200;55.426;37.758;2024-02-14T07:19:08;100404.81;;;-8.19;53.51
75617;BME280;64200;55.426;37.758;2024-02-14T07:24:09;100408.31;;;-7.15;53.03
75617;BME280;64200;55.426;37.758;2024-02-14T07:29:10;100408.00;;;-7.52;51.24
75617;BME280;64200;55.426;37.758;2024-02-14T07:34:10;100413.63;;;-6.34;51.15
75617;BME280;64200;55.426;37.758;2024-02-14T07:39:12;100414.31;;;-7.09;49.62
75617;BME280;64200;55.426;37.758;2024-02-14T07:44:13;100418.47;;;-6.82;50.70
75617;BME280;64200;55.426;37.758;2024-02-14T07:49:14;100413.56;;;-7.18;50.85
75617;BME280;64200;55.426;37.758;2024-02-14T07:54:14;100424.25;;;-7.13;51.31
75617;BME280;64200;55.426;37.758;2024-02-14T07:59:15;100427.06;;;-7.39;52.19
75617;BME280;64200;55.426;37.758;2024-02-14T08:04:16;100435.16;;;-7.69;51.69
75617;BME280;64200;55.426;37.758;2024-02-14T08:09:17;100432.97;;;-6.78;50.80
75617;BME280;64200;55.426;37.758;2024-02-14T08:14:17;100418.75;;;-6.54;50.93
75617;BME280;64200;55.426;37.758;2024-02-14T08:19:18;100435.59;;;-7.20;50.48
75617;BME280;64200;55.426;37.758;2024-02-14T08:24:18;100439.59;;;-7.26;52.22
75617;BME280;64200;55.426;37.758;2024-02-14T08:29:19;100437.13;;;-6.38;50.84
75617;BME280;64200;55.426;37.758;2024-02-14T08:34:20;100447.72;;;-6.66;49.86
75617;BME280;64200;55.426;37.758;2024-02-14T08:39:20;100454.16;;;-5.50;50.35
75617;BME280;64200;55.426;37.758;2024-02-14T08:44:21;100448.81;;;-6.38;49.07
75617;BME280;64200;55.426;37.758;2024-02-14T08:49:21;100453.56;;;-6.13;48.70
75617;BME280;64200;55.426;37.758;2024-02-14T08:54:22;100451.25;;;-6.96;52.06
75617;BME280;64200;55.426;37.758;2024-02-14T08:59:23;100461.25;;;-6.37;51.88
75617;BME280;64200;55.426;37.758;2024-02-14T09:04:24;100456.16;;;-5.25;49.88
75617;BME280;64200;55.426;37.758;2024-02-14T09:09:24;100453.13;;;-5.70;50.32
75617;BME280;64200;55.426;37.758;2024-02-14T09:14:25;100455.84;;;-6.03;50.31
75617;BME280;64200;55.426;37.758;2024-02-14T09:19:26;100463.91;;;-5.49;48.83
75617;BME280;64200;55.426;37.758;2024-02-14T09:24:27;100444.78;;;-4.90;49.49
75617;BME280;64200;55.426;37.758;2024-02-14T09:29:42;100449.22;;;-4.98;49.55
75617;BME280;64200;55.426;37.758;2024-02-14T09:34:42;100471.69;;;-5.01;49.46
75617;BME280;64200;55.426;37.758;2024-02-14T09:39:43;100466.00;;;-4.96;47.29
75617;BME280;64200;55.426;37.758;2024-02-14T09:44:45;100452.81;;;-5.43;48.57
75617;BME280;64200;55.426;37.758;2024-02-14T09:49:46;100466.56;;;-4.90;48.73
75617;BME280;64200;55.426;37.758;2024-02-14T09:54:48;100473.16;;;-5.74;49.23
75617;BME280;64200;55.426;37.758;2024-02-14T09:59:49;100462.81;;;-4.98;50.38
75617;BME280;64200;55.426;37.758;2024-02-14T10:04:51;100472.13;;;-4.74;49.15
75617;BME280;64200;55.426;37.758;2024-02-14T10:09:52;100469.19;;;-4.94;47.67
75617;BME280;64200;55.426;37.758;2024-02-14T10:14:55;100475.63;;;-5.11;50.16
75617;BME280;64200;55.426;37.758;2024-02-14T10:20:00;100470.97;;;-5.35;50.08
75617;BME280;64200;55.426;37.758;2024-02-14T10:25:05;100475.63;;;-5.11;50.41
75617;BME280;64200;55.426;37.758;2024-02-14T10:30:09;100465.88;;;-5.24;49.70
75617;BME280;64200;55.426;37.758;2024-02-14T10:35:10;100473.34;;;-5.46;50.65
75617;BME280;64200;55.426;37.758;2024-02-14T10:40:12;100472.59;;;-4.97;49.89
75617;BME280;64200;55.426;37.758;2024-02-14T10:45:13;100460.44;;;-5.00;49.91
75617;BME280;64200;55.426;37.758;2024-02-14T10:50:14;100468.25;;;-4.61;50.20
75617;BME280;64200;55.426;37.758;2024-02-14T10:55:16;100472.06;;;-4.37;49.82
75617;BME280;64200;55.426;37.758;2024-02-14T11:00:18;100474.50;;;-4.20;48.39
75617;BME280;64200;55.426;37.758;2024-02-14T11:05:19;100466.75;;;-5.45;50.81
75617;BME280;64200;55.426;37.758;2024-02-14T11:10:21;100476.69;;;-4.26;49.50
75617;BME280;64200;55.426;37.758;2024-02-14T11:15:23;100479.78;;;-4.39;48.89
75617;BME280;64200;55.426;37.758;2024-02-14T11:20:35;100464.84;;;-3.89;49.42
75617;BME280;64200;55.426;37.758;2024-02-14T11:25:36;100473.66;;;-3.80;48.98
75617;BME280;64200;55.426;37.758;2024-02-14T11:30:40;100473.75;;;-4.33;49.68
75617;BME280;64200;55.426;37.758;2024-02-14T11:35:41;100471.88;;;-4.16;49.14
75617;BME280;64200;55.426;37.758;2024-02-14T11:40:42;100466.50;;;-4.41;50.59
75617;BME280;64200;55.426;37.758;2024-02-14T11:45:44;100462.59;;;-4.81;51.33
75617;BME280;64200;55.426;37.758;2024-02-14T11:50:46;100478.28;;;-4.37;50.15
75617;BME280;64200;55.426;37.758;2024-02-14T11:55:47;100465.28;;;-5.30;52.01
75617;BME280;64200;55.426;37.758;2024-02-14T12:00:48;100471.75;;;-5.80;53.42
75617;BME280;64200;55.426;37.758;2024-02-14T12:05:52;100464.59;;;-5.39;53.12
75617;BME280;64200;55.426;37.758;2024-02-14T12:10:53;100468.84;;;-4.92;52.03
75617;BME280;64200;55.426;37.758;2024-02-14T12:15:54;100470.41;;;-4.91;52.00
75617;BME280;64200;55.426;37.758;2024-02-14T12:21:05;100472.34;;;-4.80;51.83
75617;BME280;64200;55.426;37.758;2024-02-14T12:26:09;100470.41;;;-4.79;51.94
75617;BME280;64200;55.426;37.758;2024-02-14T12:31:22;100469.16;;;-4.57;52.39
75617;BME280;64200;55.426;37.758;2024-02-14T12:36:22;100469.09;;;-5.68;54.20
75617;BME280;64200;55.426;37.758;2024-02-14T12:41:23;100475.88;;;-5.16;53.52
75617;BME280;64200;55.426;37.758;2024-02-14T12:46:26;100460.78;;;-4.89;52.58
75617;BME280;64200;55.426;37.758;2024-02-14T12:51:27;100465.19;;;-5.21;52.24
75617;BME280;64200;55.426;37.758;2024-02-14T12:56:28;100463.34;;;-4.68;52.61
75617;BME280;64200;55.426;37.758;2024-02-14T13:01:30;100473.25;;;-5.13;52.82
75617;BME280;64200;55.426;37.758;2024-02-14T13:06:30;100475.63;;;-5.36;53.44
75617;BME280;64200;55.426;37.758;2024-02-14T13:11:31;100480.13;;;-5.40;53.63
75617;BME280;64200;55.426;37.758;2024-02-14T13:16:32;100485.97;;;-5.04;53.90
75617;BME280;64200;55.426;37.758;2024-02-14T13:21:32;100481.41;;;-5.37;53.79
75617;BME280;64200;55.426;37.758;2024-02-14T13:26:34;100475.66;;;-5.57;54.60
75617;BME280;64200;55.426;37.758;2024-02-14T13:31:34;100494.44;;;-5.18;53.49
75617;BME280;64200;55.426;37.758;2024-02-14T13:36:35;100490.03;;;-4.98;53.61
75617;BME280;64200;55.426;37.758;2024-02-14T13:41:35;100492.97;;;-5.28;54.06
75617;BME280;64200;55.426;37.758;2024-02-14T13:46:45;100491.25;;;-5.33;53.84
75617;BME280;64200;55.426;37.758;2024-02-14T13:51:51;100496.59;;;-5.12;54.01
75617;BME280;64200;55.426;37.758;2024-02-14T13:56:52;100489.22;;;-5.69;54.29
75617;BME280;64200;55.426;37.758;2024-02-14T14:01:53;100485.66;;;-5.61;54.43
75617;BME280;64200;55.426;37.758;2024-02-14T14:06:53;100486.53;;;-5.57;54.84
75617;BME280;64200;55.426;37.758;2024-02-14T14:11:55;100488.34;;;-5.94;55.10
75617;BME280;64200;55.426;37.758;2024-02-14T14:16:56;100487.19;;;-6.06;55.92
75617;BME280;64200;55.426;37.758;2024-02-14T14:21:58;100491.78;;;-5.85;55.52
75617;BME280;64200;55.426;37.758;2024-02-14T14:26:59;100494.19;;;-6.47;56.69
75617;BME280;64200;55.426;37.758;2024-02-14T14:31:59;100500.63;;;-6.51;56.52
75617;BME280;64200;55.426;37.758;2024-02-14T14:37:00;100494.13;;;-6.59;56.84
75617;BME280;64200;55.426;37.758;2024-02-14T14:42:01;100503.28;;;-6.01;55.80
75617;BME280;64200;55.426;37.758;2024-02-14T14:47:02;100513.22;;;-6.05;55.60
75617;BME280;64200;55.426;37.758;2024-02-14T14:52:03;100523.34;;;-6.35;56.34
75617;BME280;64200;55.426;37.758;2024-02-14T14:57:05;100513.41;;;-6.52;55.99
75617;BME280;64200;55.426;37.758;2024-02-14T15:02:11;100514.56;;;-6.32;56.47
75617;BME280;64200;55.426;37.758;2024-02-14T15:07:13;100512.22;;;-6.72;57.29
75617;BME280;64200;55.426;37.758;2024-02-14T15:12:13;100519.38;;;-6.16;56.08
75617;BME280;64200;55.426;37.758;2024-02-14T15:17:14;100530.75;;;-6.44;56.44
75617;BME280;64200;55.426;37.758;2024-02-14T15:22:14;100522.44;;;-6.18;56.43
75617;BME280;64200;55.426;37.758;2024-02-14T15:27:16;100524.84;;;-5.83;55.40
75617;BME280;64200;55.426;37.758;2024-02-14T15:32:21;100537.69;;;-6.26;56.33
75617;BME280;64200;55.426;37.758;2024-02-14T15:37:40;100525.31;;;-5.81;54.99
75617;BME280;64200;55.426;37.758;2024-02-14T15:42:43;100536.22;;;-6.53;56.46
75617;BME280;64200;55.426;37.758;2024-02-14T15:47:45;100532.31;;;-6.64;56.78
75617;BME280;64200;55.426;37.758;2024-02-14T15:52:45;100531.81;;;-6.37;56.85
75617;BME280;64200;55.426;37.758;2024-02-14T15:57:46;100555.41;;;-6.28;56.55
75617;BME280;64200;55.426;37.758;2024-02-14T16:02:48;100549.66;;;-6.27;56.98
75617;BME280;64200;55.426;37.758;2024-02-14T16:07:49;100549.09;;;-6.41;56.67
75617;BME280;64200;55.426;37.758;2024-02-14T16:12:49;100551.38;;;-6.22;56.60
75617;BME280;64200;55.426;37.758;2024-02-14T16:17:50;100564.25;;;-6.40;57.06
75617;BME280;64200;55.426;37.758;2024-02-14T16:22:50;100565.53;;;-6.38;57.06
75617;BME280;64200;55.426;37.758;2024-02-14T16:27:51;100569.47;;;-6.56;57.65
75617;BME280;64200;55.426;37.758;2024-02-14T16:32:53;100561.94;;;-6.89;58.74
75617;BME280;64200;55.426;37.758;2024-02-14T16:37:54;100573.25;;;-6.48;57.51
75617;BME280;64200;55.426;37.758;2024-02-14T16:42:55;100560.47;;;-6.78;57.61
75617;BME280;64200;55.426;37.758;2024-02-14T16:47:57;100562.50;;;-6.36;57.45
75617;BME280;64200;55.426;37.758;2024-02-14T16:53:01;100580.97;;;-6.29;57.06
75617;BME280;64200;55.426;37.758;2024-02-14T16:58:04;100581.03;;;-6.77;58.08
75617;BME280;64200;55.426;37.758;2024-02-14T17:03:06;100590.75;;;-6.67;57.81
75617;BME280;64200;55.426;37.758;2024-02-14T17:08:06;100593.53;;;-6.84;58.21
75617;BME280;64200;55.426;37.758;2024-02-14T17:13:07;100595.13;;;-6.83;57.78
75617;BME280;64200;55.426;37.758;2024-02-14T17:18:07;100593.53;;;-6.84;58.01
75617;BME280;64200;55.426;37.758;2024-02-14T17:23:09;100600.72;;;-6.89;58.17
75617;BME280;64200;55.426;37.758;2024-02-14T17:28:10;100573.00;;;-6.94;57.94
75617;BME280;64200;55.426;37.758;2024-02-14T17:33:11;100590.09;;;-6.64;58.01
75617;BME280;64200;55.426;37.758;2024-02-14T17:38:12;100608.47;;;-6.69;58.27
75617;BME280;64200;55.426;37.758;2024-02-14T17:43:12;100596.22;;;-6.84;57.77
75617;BME280;64200;55.426;37.758;2024-02-14T17:48:14;100594.59;;;-7.33;58.36
75617;BME280;64200;55.426;37.758;2024-02-14T17:53:15;100585.78;;;-7.12;58.61
75617;BME280;64200;55.426;37.758;2024-02-14T17:58:17;100600.63;;;-7.18;58.23
75617;BME280;64200;55.426;37.758;2024-02-14T18:03:19;100582.81;;;-7.37;59.52
75617;BME280;64200;55.426;37.758;2024-02-14T18:08:19;100597.25;;;-7.07;57.99
75617;BME280;64200;55.426;37.758;2024-02-14T18:13:20;100601.06;;;-6.99;58.64
75617;BME280;64200;55.426;37.758;2024-02-14T18:18:20;100613.44;;;-7.63;59.44
75617;BME280;64200;55.426;37.758;2024-02-14T18:23:21;100599.19;;;-7.07;58.02
75617;BME280;64200;55.426;37.758;2024-02-14T18:28:22;100601.13;;;-7.16;57.95
75617;BME280;64200;55.426;37.758;2024-02-14T18:33:22;100602.28;;;-7.52;58.30
75617;BME280;64200;55.426;37.758;2024-02-14T18:38:23;100594.09;;;-7.17;58.10
75617;BME280;64200;55.426;37.758;2024-02-14T18:43:31;100596.53;;;-7.33;58.22
75617;BME280;64200;55.426;37.758;2024-02-14T18:48:32;100596.38;;;-7.37;57.83
75617;BME280;64200;55.426;37.758;2024-02-14T18:53:33;100598.09;;;-7.24;57.46
75617;BME280;64200;55.426;37.758;2024-02-14T18:58:34;100585.22;;;-7.79;58.36
75617;BME280;64200;55.426;37.758;2024-02-14T19:03:35;100601.31;;;-8.09;59.46
75617;BME280;64200;55.426;37.758;2024-02-14T19:08:36;100589.38;;;-7.47;58.76
75617;BME280;64200;55.426;37.758;2024-02-14T19:13:36;100598.47;;;-7.69;58.69
75617;BME280;64200;55.426;37.758;2024-02-14T19:18:38;100590.00;;;-7.32;58.07
75617;BME280;64200;55.426;37.758;2024-02-14T19:23:41;100569.31;;;-7.72;56.93
75617;BME280;64200;55.426;37.758;2024-02-14T19:28:42;100579.81;;;-7.88;58.34
75617;BME280;64200;55.426;37.758;2024-02-14T19:33:43;100602.53;;;-8.33;59.39
75617;BME280;64200;55.426;37.758;2024-02-14T19:38:45;100582.69;;;-7.75;58.05
75617;BME280;64200;55.426;37.758;2024-02-14T19:43:46;100571.69;;;-8.14;58.03
75617;BME280;64200;55.426;37.758;2024-02-14T19:48:46;100585.56;;;-7.81;56.89
75617;BME280;64200;55.426;37.758;2024-02-14T19:53:47;100588.25;;;-8.07;58.17
75617;BME280;64200;55.426;37.758;2024-02-14T19:58:48;100610.25;;;-7.82;57.44
75617;BME280;64200;55.426;37.758;2024-02-14T20:03:48;100594.28;;;-8.10;57.25
75617;BME280;64200;55.426;37.758;2024-02-14T20:08:49;100601.34;;;-7.83;56.60
75617;BME280;64200;55.426;37.758;2024-02-14T20:14:01;100608.75;;;-8.23;58.25
75617;BME280;64200;55.426;37.758;2024-02-14T20:19:01;100610.09;;;-7.95;57.44
75617;BME280;64200;55.426;37.758;2024-02-14T20:24:02;100596.84;;;-7.61;56.32
75617;BME280;64200;55.426;37.758;2024-02-14T20:29:04;100601.78;;;-8.24;57.17
75617;BME280;64200;55.426;37.758;2024-02-14T20:34:07;100603.56;;;-8.02;56.91
75617;BME280;64200;55.426;37.758;2024-02-14T20:39:08;100595.75;;;-7.95;57.57
75617;BME280;64200;55.426;37.758;2024-02-14T20:44:09;100608.13;;;-8.12;57.06
75617;BME280;64200;55.426;37.758;2024-02-14T20:49:09;100598.31;;;-7.81;56.60
75617;BME280;64200;55.426;37.758;2024-02-14T20:54:10;100600.84;;;-7.76;56.18
75617;BME280;64200;55.426;37.758;2024-02-14T20:59:11;100601.34;;;-7.83;55.86
75617;BME280;64200;55.426;37.758;2024-02-14T21:04:11;100604.69;;;-7.86;56.16
75617;BME280;64200;55.426;37.758;2024-02-14T21:09:13;100605.72;;;-8.31;56.94
75617;BME280;64200;55.426;37.758;2024-02-14T21:14:14;100610.31;;;-8.49;57.02
75617;BME280;64200;55.426;37.758;2024-02-14T21:19:14;100617.06;;;-8.11;57.03
75617;BME280;64200;55.426;37.758;2024-02-14T21:24:15;100608.31;;;-8.08;56.15
75617;BME280;64200;55.426;37.758;2024-02-14T21:29:15;100613.25;;;-8.68;56.95
75617;BME280;64200;55.426;37.758;2024-02-14T21:34:16;100628.06;;;-7.99;56.19
75617;BME280;64200;55.426;37.758;2024-02-14T21:39:17;100615.94;;;-8.10;56.56
75617;BME280;64200;55.426;37.758;2024-02-14T21:44:18;100620.56;;;-8.19;56.10
75617;BME280;64200;55.426;37.758;2024-02-14T21:49:21;100620.53;;;-8.28;56.75
75617;BME280;64200;55.426;37.758;2024-02-14T21:54:21;100617.16;;;-8.34;56.63
75617;BME280;64200;55.426;37.758;2024-02-14T21:59:22;100621.84;;;-8.08;56.02
75617;BME280;64200;55.426;37.758;2024-02-14T22:04:24;100624.09;;;-7.92;55.51
75617;BME280;64200;55.426;37.758;2024-02-14T22:09:25;100625.47;;;-8.30;55.17
75617;BME280;64200;55.426;37.758;2024-02-14T22:14:27;100626.59;;;-8.22;55.64
75617;BME280;64200;55.426;37.758;2024-02-14T22:19:28;100627.13;;;-8.60;56.23
75617;BME280;64200;55.426;37.758;2024-02-14T22:24:28;100639.13;;;-8.44;56.62
75617;BME280;64200;55.426;37.758;2024-02-14T22:29:29;100630.97;;;-8.53;55.25
75617;BME280;64200;55.426;37.758;2024-02-14T22:34:30;100628.34;;;-8.26;55.46
75617;BME280;64200;55.426;37.758;2024-02-14T22:39:31;100630.06;;;-8.31;55.93
75617;BME280;64200;55.426;37.758;2024-02-14T22:44:32;100623.97;;;-8.62;55.86
75617;BME280;64200;55.426;37.758;2024-02-14T22:49:34;100647.41;;;-8.40;57.01
75617;BME280;64200;55.426;37.758;2024-02-14T22:54:35;100617.72;;;-8.63;57.37
75617;BME280;64200;55.426;37.758;2024-02-14T22:59:35;100642.44;;;-8.87;58.33
75617;BME280;64200;55.426;37.758;2024-02-14T23:04:36;100627.63;;;-8.58;59.76
75617;BME280;64200;55.426;37.758;2024-02-14T23:09:39;100618.19;;;-8.70;58.77
75617;BME280;64200;55.426;37.758;2024-02-14T23:14:39;100612.59;;;-9.05;58.55
75617;BME280;64200;55.426;37.758;2024-02-14T23:19:40;100632.09;;;-9.16;61.02
75617;BME280;64200;55.426;37.758;2024-02-14T23:24:40;100617.59;;;-8.98;61.22
75617;BME280;64200;55.426;37.758;2024-02-14T23:29:41;100612.28;;;-9.34;61.44
75617;BME280;64200;55.426;37.758;2024-02-14T23:34:41;100612.22;;;-9.43;62.36
75617;BME280;64200;55.426;37.758;2024-02-14T23:39:42;100619.75;;;-9.31;61.47
75617;BME280;64200;55.426;37.758;2024-02-14T23:44:43;100617.53;;;-9.07;60.78
75617;BME280;64200;55.426;37.758;2024-02-14T23:49:44;100622.88;;;-9.15;62.13
75617;BME280;64200;55.426;37.758;2024-02-14T23:54:45;100613.06;;;-9.11;61.72
75617;BME280;64200;55.426;37.758;2024-02-14T23:59:49;100614.00;;;-9.61;62.02
